createdAt,value
2023-02-11T00:00:32.396Z,23.92
2023-02-11T00:03:02.061Z,25.48
2023-02-11T00:05:34.267Z,24.63
2023-02-11T00:08:03.895Z,25.38
2023-02-11T00:10:33.482Z,25.38
2023-02-11T00:13:03.057Z,23.48
2023-02-11T00:15:32.694Z,22.67
2023-02-11T00:18:02.285Z,22.08
2023-02-11T00:20:34.417Z,21.17
2023-02-11T00:23:03.994Z,22.40
2023-02-11T00:25:33.677Z,21.38
2023-02-11T00:28:03.275Z,21.88
2023-02-11T00:30:33.097Z,21.83
2023-02-11T00:33:02.860Z,20.27
2023-02-11T00:35:35.317Z,20.65
2023-02-11T00:38:04.903Z,20.35
2023-02-11T00:40:34.563Z,19.45
2023-02-11T00:43:04.129Z,21.17
2023-02-11T00:45:33.788Z,26.20
2023-02-11T00:48:04.913Z,20.95
2023-02-11T00:50:37.106Z,18.90
2023-02-11T00:53:06.736Z,20.58
2023-02-11T00:55:36.533Z,19.23
2023-02-11T00:58:06.127Z,18.90
2023-02-11T01:00:35.894Z,20.65
2023-02-11T01:03:05.558Z,20.15
2023-02-11T01:05:37.987Z,18.88
2023-02-11T01:08:08.101Z,19.40
2023-02-11T01:10:37.706Z,19.15
2023-02-11T01:13:07.875Z,19.17
2023-02-11T01:15:37.560Z,19.77
2023-02-11T01:18:08.067Z,19.77
2023-02-11T01:20:45.166Z,19.63
2023-02-11T01:23:14.851Z,20.10
2023-02-11T01:25:45.997Z,18.40
2023-02-11T01:28:19.668Z,20.23
2023-02-11T01:30:49.598Z,20.23
2023-02-11T01:33:19.400Z,19.60
2023-02-11T01:35:51.893Z,19.63
2023-02-11T01:38:23.494Z,20.23
2023-02-11T01:40:57.461Z,19.00
2023-02-11T01:43:28.594Z,19.35
2023-02-11T01:46:09.845Z,19.17
2023-02-11T01:48:41.646Z,19.77
2023-02-11T01:51:16.634Z,19.40
2023-02-11T01:53:59.358Z,18.42
2023-02-11T01:56:42.954Z,19.10
2023-02-11T01:59:15.645Z,19.97
2023-02-11T02:01:49.851Z,18.90
2023-02-11T02:06:55.653Z,18.95
2023-02-11T02:09:26.954Z,20.23
2023-02-11T02:11:56.840Z,19.73
2023-02-11T02:14:29.028Z,19.88
2023-02-11T02:16:58.682Z,19.08
2023-02-11T02:19:51.658Z,19.48
2023-02-11T02:23:03.681Z,18.55
2023-02-11T02:26:14.548Z,19.65
2023-02-11T02:29:25.180Z,20.40
2023-02-11T02:32:39.316Z,19.88
2023-02-11T02:35:19.338Z,19.55
2023-02-11T02:37:54.290Z,19.30
2023-02-11T02:40:27.099Z,20.02
2023-02-11T02:42:58.162Z,20.15
2023-02-11T02:45:27.793Z,18.65
2023-02-11T02:47:58.314Z,19.15
2023-02-11T02:50:33.632Z,19.13
2023-02-11T02:53:14.834Z,18.13
2023-02-11T02:55:52.482Z,19.88
2023-02-11T02:58:49.903Z,18.73
2023-02-11T03:01:27.926Z,19.80
2023-02-11T03:04:02.664Z,19.90
2023-02-11T03:06:37.788Z,19.58
2023-02-11T03:09:11.460Z,19.25
2023-02-11T03:11:41.778Z,18.63
2023-02-11T03:14:14.216Z,20.63
2023-02-11T03:16:44.185Z,19.20
2023-02-11T03:19:16.564Z,18.95
2023-02-11T03:21:49.913Z,19.58
2023-02-11T03:24:23.183Z,18.30
2023-02-11T03:26:55.529Z,19.43
2023-02-11T03:29:34.652Z,19.55
2023-02-11T03:32:08.177Z,18.27
2023-02-11T03:34:43.303Z,19.10
2023-02-11T03:37:17.379Z,17.55
2023-02-11T03:39:50.589Z,18.80
2023-02-11T03:42:21.233Z,18.25
2023-02-11T03:45:08.576Z,17.95
2023-02-11T03:47:40.332Z,18.25
2023-02-11T03:50:11.844Z,17.45
2023-02-11T03:52:44.230Z,18.38
2023-02-11T03:55:16.378Z,17.45
2023-02-11T03:57:46.039Z,18.27
2023-02-11T04:00:16.880Z,19.85
2023-02-11T04:02:46.975Z,18.20
2023-02-11T04:05:18.335Z,20.02
2023-02-11T04:07:50.517Z,20.95
2023-02-11T04:10:20.621Z,18.45
2023-02-11T04:12:50.363Z,20.60
2023-02-11T04:15:20.211Z,19.58
2023-02-11T04:17:49.850Z,20.05
2023-02-11T04:20:19.650Z,20.02
2023-02-11T04:22:51.838Z,20.73
2023-02-11T04:25:21.666Z,19.73
2023-02-11T04:27:51.302Z,19.98
2023-02-11T04:30:21.212Z,20.58
2023-02-11T04:32:50.914Z,20.05
2023-02-11T04:35:20.712Z,19.85
2023-02-11T04:37:52.900Z,22.13
2023-02-11T04:40:22.738Z,23.50
2023-02-11T04:42:52.365Z,21.92
2023-02-11T04:45:22.005Z,21.48
2023-02-11T04:47:51.622Z,20.40
2023-02-11T04:50:21.395Z,21.02
2023-02-11T04:52:53.587Z,20.65
2023-02-11T04:55:23.194Z,20.88
2023-02-11T04:57:52.828Z,21.30
2023-02-11T05:00:22.601Z,20.52
2023-02-11T05:02:52.228Z,21.33
2023-02-11T05:05:22.028Z,21.08
2023-02-11T05:07:54.545Z,19.27
2023-02-11T05:10:24.155Z,19.63
2023-02-11T05:12:55.895Z,20.15
2023-02-11T05:15:25.752Z,18.27
2023-02-11T05:17:56.294Z,19.58
2023-02-11T05:20:26.015Z,20.17
2023-02-11T05:22:58.286Z,20.70
2023-02-11T05:25:27.906Z,22.55
2023-02-11T05:27:57.533Z,20.85
2023-02-11T05:30:27.210Z,21.83
2023-02-11T05:32:56.889Z,21.90
2023-02-11T05:35:26.604Z,22.17
2023-02-11T05:37:58.762Z,22.88
2023-02-11T05:40:28.390Z,23.33
2023-02-11T05:42:57.978Z,21.90
2023-02-11T05:45:27.618Z,24.55
2023-02-11T05:47:57.295Z,23.67
2023-02-11T05:50:27.129Z,24.13
2023-02-11T05:52:59.326Z,24.25
2023-02-11T05:55:29.124Z,25.90
2023-02-11T05:57:58.777Z,26.50
2023-02-11T06:00:29.042Z,25.05
2023-02-11T06:02:58.714Z,24.40
2023-02-11T06:05:28.549Z,24.50
2023-02-11T06:08:01.123Z,24.38
2023-02-11T06:10:30.722Z,22.85
2023-02-11T06:13:00.321Z,25.33
2023-02-11T06:15:29.941Z,25.50
2023-02-11T06:17:59.700Z,24.58
2023-02-11T06:20:29.842Z,26.52
2023-02-11T06:23:02.102Z,24.27
2023-02-11T06:25:31.816Z,26.52
2023-02-11T06:28:01.472Z,25.67
2023-02-11T06:30:31.124Z,25.30
2023-02-11T06:33:00.714Z,27.30
2023-02-11T06:35:30.295Z,26.05
2023-02-11T06:38:02.503Z,26.60
2023-02-11T06:40:32.199Z,26.17
2023-02-11T06:43:01.822Z,27.38
2023-02-11T06:45:31.465Z,27.42
2023-02-11T06:48:01.055Z,28.55
2023-02-11T06:50:30.656Z,28.95
2023-02-11T06:53:04.389Z,27.77
2023-02-11T06:55:33.958Z,28.20
2023-02-11T06:58:03.631Z,28.00
2023-02-11T07:00:33.262Z,28.60
2023-02-11T07:03:03.068Z,27.75
2023-02-11T07:05:34.204Z,27.40
2023-02-11T07:08:07.060Z,28.80
2023-02-11T07:10:37.095Z,29.55
2023-02-11T07:13:06.792Z,29.15
2023-02-11T07:15:36.442Z,30.90
2023-02-11T07:18:06.220Z,28.52
2023-02-11T07:20:35.845Z,29.25
2023-02-11T07:23:08.294Z,29.05
2023-02-11T07:25:38.346Z,27.88
2023-02-11T07:28:08.334Z,30.02
2023-02-11T07:30:37.985Z,29.52
2023-02-11T07:33:07.556Z,29.23
2023-02-11T07:35:37.124Z,29.70
2023-02-11T07:38:09.312Z,29.58
2023-02-11T07:40:39.474Z,28.73
2023-02-11T07:43:09.478Z,30.58
2023-02-11T07:45:41.465Z,28.33
2023-02-11T07:48:11.100Z,26.92
2023-02-11T07:50:40.794Z,28.77
2023-02-11T07:53:13.042Z,27.23
2023-02-11T07:55:43.055Z,29.48
2023-02-11T07:58:13.024Z,28.48
2023-02-11T08:00:42.710Z,29.23
2023-02-11T08:03:12.916Z,28.58
2023-02-11T08:05:43.891Z,28.70
2023-02-11T08:08:16.100Z,28.13
2023-02-11T08:10:45.902Z,30.20
2023-02-11T08:13:15.635Z,28.52
2023-02-11T08:15:45.213Z,27.88
2023-02-11T08:18:15.501Z,29.42
2023-02-11T08:20:45.252Z,28.15
2023-02-11T08:23:17.473Z,27.80
2023-02-11T08:25:47.063Z,28.20
2023-02-11T08:28:16.795Z,28.42
2023-02-11T08:30:46.447Z,25.08
2023-02-11T08:33:16.090Z,27.45
2023-02-11T08:35:45.734Z,26.38
2023-02-11T08:38:18.119Z,29.38
2023-02-11T08:40:48.400Z,27.92
2023-02-11T08:43:18.388Z,28.42
2023-02-11T08:45:48.507Z,29.30
2023-02-11T08:48:18.270Z,27.77
2023-02-11T08:50:47.906Z,28.27
2023-02-11T08:53:20.207Z,27.02
2023-02-11T08:55:52.242Z,28.00
2023-02-11T08:58:22.377Z,31.25
2023-02-11T09:00:52.743Z,27.52
2023-02-11T09:03:22.632Z,25.65
2023-02-11T09:05:53.411Z,25.63
2023-02-11T09:08:28.232Z,27.67
2023-02-11T09:11:02.413Z,26.48
2023-02-11T09:16:01.996Z,26.15
2023-02-11T09:18:31.725Z,26.67
2023-02-11T09:21:05.493Z,25.13
2023-02-11T09:23:38.870Z,29.48
2023-02-11T09:26:09.538Z,27.48
2023-02-11T09:28:39.494Z,26.63
2023-02-11T09:31:09.698Z,34.92
2023-02-11T09:33:39.624Z,27.30
2023-02-11T09:36:10.696Z,28.88
2023-02-11T09:38:42.925Z,28.08
2023-02-11T09:41:28.796Z,27.35
2023-02-11T09:43:59.749Z,25.95
2023-02-11T09:46:34.004Z,28.85
2023-02-11T09:49:04.816Z,30.98
2023-02-11T09:51:39.407Z,29.08
2023-02-11T09:54:19.693Z,27.95
2023-02-11T09:56:49.332Z,27.35
2023-02-11T09:59:20.258Z,27.05
2023-02-11T10:01:52.493Z,27.52
2023-02-11T10:04:32.300Z,26.88
2023-02-11T10:07:06.174Z,27.10
2023-02-11T10:09:49.960Z,26.50
2023-02-11T10:12:38.351Z,30.02
2023-02-11T10:15:32.494Z,27.20
2023-02-11T10:18:18.757Z,27.92
2023-02-11T10:20:52.658Z,27.13
2023-02-11T10:23:24.763Z,27.90
2023-02-11T10:25:58.067Z,31.73
2023-02-11T10:28:32.934Z,33.07
2023-02-11T10:31:04.736Z,28.88
2023-02-11T10:33:39.305Z,27.33
2023-02-11T10:36:09.822Z,27.08
2023-02-11T10:38:39.706Z,26.95
2023-02-11T10:41:12.833Z,25.70
2023-02-11T10:43:44.622Z,25.83
2023-02-11T10:46:19.399Z,27.35
2023-02-11T10:48:51.633Z,28.77
2023-02-11T10:51:25.547Z,27.52
2023-02-11T10:54:19.565Z,26.35
2023-02-11T10:56:53.903Z,27.50
2023-02-11T10:59:28.070Z,26.75
2023-02-11T11:04:37.851Z,24.98
2023-02-11T11:07:19.612Z,24.88
2023-02-11T11:09:55.604Z,25.00
2023-02-11T11:12:42.271Z,26.63
2023-02-11T11:15:23.558Z,26.52
2023-02-11T11:17:59.610Z,26.25
2023-02-11T11:20:38.061Z,26.30
2023-02-11T11:23:14.847Z,25.42
2023-02-11T11:25:46.470Z,27.40
2023-02-11T11:28:27.171Z,28.15
2023-02-11T11:30:58.786Z,27.15
2023-02-11T11:33:30.655Z,26.60
2023-02-11T11:36:04.984Z,26.55
2023-02-11T11:38:35.161Z,27.48
2023-02-11T11:41:21.851Z,25.85
2023-02-11T11:44:06.815Z,25.52
2023-02-11T11:46:38.726Z,25.10
2023-02-11T11:49:20.195Z,25.70
2023-02-11T11:51:56.368Z,25.92
2023-02-11T11:54:26.554Z,28.13
2023-02-11T11:56:59.724Z,27.38
2023-02-11T11:59:32.431Z,26.90
2023-02-11T12:02:27.948Z,26.92
2023-02-11T12:05:04.968Z,26.65
2023-02-11T12:07:43.175Z,26.42
2023-02-11T12:10:36.046Z,26.67
2023-02-11T12:13:14.319Z,28.50
2023-02-11T12:15:54.806Z,27.50
2023-02-11T12:18:44.933Z,27.75
2023-02-11T12:21:24.132Z,28.20
2023-02-11T12:24:03.278Z,27.17
2023-02-11T12:26:38.179Z,26.48
2023-02-11T12:29:13.816Z,27.58
2023-02-11T12:31:57.717Z,27.60
2023-02-11T12:34:38.378Z,26.88
2023-02-11T12:37:17.232Z,26.33
2023-02-11T12:39:53.237Z,25.42
2023-02-11T12:42:51.636Z,25.10
2023-02-11T12:45:34.939Z,25.13
2023-02-11T12:48:18.489Z,26.40
2023-02-11T12:50:56.804Z,27.85
2023-02-11T12:53:36.489Z,27.58
2023-02-11T12:56:09.348Z,26.75
2023-02-11T12:58:45.488Z,26.13
2023-02-11T13:01:20.788Z,27.65
2023-02-11T13:03:57.207Z,26.90
2023-02-11T13:06:32.414Z,26.50
2023-02-11T13:09:04.461Z,27.08
2023-02-11T13:11:40.294Z,25.92
2023-02-11T13:14:15.670Z,26.70
2023-02-11T13:16:46.858Z,25.40
2023-02-11T13:19:24.440Z,24.73
2023-02-11T13:22:07.527Z,26.13
2023-02-11T13:24:44.627Z,32.50
2023-02-11T13:27:25.845Z,29.75
2023-02-11T13:30:21.867Z,28.15
2023-02-11T13:33:09.432Z,27.17
2023-02-11T13:35:43.292Z,26.15
2023-02-11T13:38:21.707Z,27.92
2023-02-11T13:41:02.760Z,26.67
2023-02-11T13:43:34.137Z,27.92
2023-02-11T13:46:05.286Z,27.77
2023-02-11T13:48:36.637Z,27.80
2023-02-11T13:51:10.364Z,26.77
2023-02-11T13:53:48.828Z,27.02
2023-02-11T13:56:32.641Z,26.30
2023-02-11T13:59:03.012Z,26.55
2023-02-11T14:01:44.209Z,25.17
2023-02-11T14:04:37.122Z,25.85
2023-02-11T14:07:40.176Z,26.20
2023-02-11T14:10:45.159Z,26.40
2023-02-11T14:13:25.182Z,26.83
2023-02-11T14:16:10.801Z,26.95
2023-02-11T14:19:02.466Z,26.30
2023-02-11T14:21:38.347Z,27.40
2023-02-11T14:24:38.125Z,28.45
2023-02-11T14:27:12.280Z,28.95
2023-02-11T14:32:18.024Z,28.63
2023-02-11T14:34:54.859Z,28.27
2023-02-11T14:37:34.356Z,28.00
2023-02-11T14:40:12.574Z,29.00
2023-02-11T14:42:44.940Z,29.67
2023-02-11T14:45:19.500Z,27.92
2023-02-11T14:47:53.759Z,29.45
2023-02-11T14:50:28.240Z,27.88
2023-02-11T14:52:58.678Z,29.13
2023-02-11T14:55:33.249Z,28.13
2023-02-11T14:58:20.211Z,28.25
2023-02-11T15:00:51.539Z,27.23
2023-02-11T15:03:41.542Z,28.80
2023-02-11T15:06:19.128Z,28.17
2023-02-11T15:08:51.687Z,29.02
2023-02-11T15:11:23.466Z,29.02
2023-02-11T15:13:56.004Z,28.80
2023-02-11T15:16:27.386Z,29.10
2023-02-11T15:18:59.654Z,28.88
2023-02-11T15:21:31.408Z,31.05
2023-02-11T15:24:04.166Z,30.35
2023-02-11T15:26:33.864Z,29.38
2023-02-11T15:29:06.219Z,29.92
2023-02-11T15:31:36.115Z,30.13
2023-02-11T15:34:10.317Z,29.88
2023-02-11T15:39:20.600Z,28.90
2023-02-11T15:41:50.172Z,27.88
2023-02-11T15:44:35.787Z,28.67
2023-02-11T15:47:05.409Z,28.65
2023-02-11T15:49:35.542Z,30.00
2023-02-11T15:52:06.288Z,29.02
2023-02-11T15:54:35.966Z,28.63
2023-02-11T15:57:06.881Z,27.95
2023-02-11T15:59:40.854Z,28.30
2023-02-11T16:02:12.449Z,27.42
2023-02-11T16:04:42.128Z,29.33
2023-02-11T16:07:45.051Z,27.95
2023-02-11T16:10:26.906Z,28.75
2023-02-11T16:12:58.842Z,28.35
2023-02-11T16:15:45.582Z,28.75
2023-02-11T16:18:37.899Z,29.15
2023-02-11T16:21:10.007Z,27.17
2023-02-11T16:23:42.087Z,28.27
2023-02-11T16:26:16.090Z,29.10
2023-02-11T16:28:45.780Z,29.27
2023-02-11T16:31:18.053Z,32.80
2023-02-11T16:33:47.792Z,32.92
2023-02-11T16:36:18.959Z,29.05
2023-02-11T16:38:48.576Z,31.65
2023-02-11T16:41:18.189Z,28.65
2023-02-11T16:43:47.819Z,29.23
2023-02-11T16:46:20.043Z,27.48
2023-02-11T16:48:49.637Z,29.65
2023-02-11T16:51:19.222Z,30.35
2023-02-11T16:53:48.810Z,29.67
2023-02-11T16:56:20.427Z,29.35
2023-02-11T16:58:50.029Z,28.95
2023-02-11T17:01:22.277Z,28.33
2023-02-11T17:03:52.044Z,29.83
2023-02-11T17:06:21.610Z,29.20
2023-02-11T17:08:51.208Z,43.67
2023-02-11T17:11:20.789Z,38.65
2023-02-11T17:13:50.475Z,33.00
2023-02-11T17:16:25.028Z,29.25
2023-02-11T17:18:55.248Z,29.02
2023-02-11T17:21:28.167Z,29.58
2023-02-11T17:23:59.131Z,27.20
2023-02-11T17:26:28.748Z,28.23
2023-02-11T17:28:58.522Z,28.23
2023-02-11T17:31:30.757Z,28.75
2023-02-11T17:34:00.594Z,29.90
2023-02-11T17:36:31.341Z,28.27
2023-02-11T17:39:00.974Z,30.05
2023-02-11T17:41:31.201Z,29.42
2023-02-11T17:44:01.462Z,29.65
2023-02-11T17:46:34.102Z,31.42
2023-02-11T17:49:04.169Z,29.58
2023-02-11T17:51:35.272Z,32.30
2023-02-11T17:54:06.118Z,30.33
2023-02-11T17:56:37.538Z,30.55
2023-02-11T17:59:08.412Z,30.77
2023-02-11T18:01:41.491Z,31.40
2023-02-11T18:04:13.850Z,29.92
2023-02-11T18:06:43.860Z,29.67
2023-02-11T18:09:13.845Z,30.13
2023-02-11T18:11:43.957Z,29.17
2023-02-11T18:14:13.730Z,30.40
2023-02-11T18:16:47.457Z,31.05
2023-02-11T18:19:17.138Z,32.50
2023-02-11T18:21:48.832Z,31.58
2023-02-11T18:24:18.876Z,33.05
2023-02-11T18:26:48.450Z,30.30
2023-02-11T18:29:18.061Z,31.35
2023-02-11T18:31:50.606Z,31.17
2023-02-11T18:34:20.163Z,31.10
2023-02-11T18:36:49.938Z,31.95
2023-02-11T18:39:20.052Z,31.17
2023-02-11T18:41:53.909Z,31.30
2023-02-11T18:44:24.765Z,34.13
2023-02-11T18:46:56.960Z,31.00
2023-02-11T18:49:26.553Z,31.10
2023-02-11T18:51:58.616Z,30.58
2023-02-11T18:54:28.264Z,31.60
2023-02-11T18:56:57.766Z,30.85
2023-02-11T18:59:27.477Z,36.25
2023-02-11T19:01:59.649Z,31.88
2023-02-11T19:04:29.293Z,31.73
2023-02-11T19:07:03.145Z,30.65
2023-02-11T19:09:33.216Z,34.85
2023-02-11T19:12:02.841Z,58.13
2023-02-11T19:14:34.958Z,33.03
2023-02-11T19:17:11.848Z,32.28
2023-02-11T19:19:41.629Z,31.77
2023-02-11T19:22:11.242Z,29.45
2023-02-11T19:24:41.359Z,31.48
2023-02-11T19:27:10.945Z,32.30
2023-02-11T19:29:40.961Z,31.45
2023-02-11T19:32:13.177Z,31.52
2023-02-11T19:34:43.739Z,30.23
2023-02-11T19:37:15.193Z,31.67
2023-02-11T19:39:45.712Z,31.00
2023-02-11T19:42:15.690Z,31.55
2023-02-11T19:44:45.277Z,31.23
2023-02-11T19:47:17.990Z,31.80
2023-02-11T19:49:48.013Z,31.45
2023-02-11T19:52:17.623Z,30.75
2023-02-11T19:54:47.261Z,30.38
2023-02-11T19:57:16.873Z,31.25
2023-02-11T19:59:46.530Z,30.75
2023-02-11T20:02:19.315Z,29.98
2023-02-11T20:04:48.959Z,31.70
2023-02-11T20:07:18.537Z,31.98
2023-02-11T20:09:48.110Z,30.98
2023-02-11T20:12:17.755Z,34.70
2023-02-11T20:14:47.370Z,29.98
2023-02-11T20:17:19.566Z,31.00
2023-02-11T20:19:49.240Z,32.03
2023-02-11T20:22:18.827Z,31.08
2023-02-11T20:24:48.461Z,31.08
2023-02-11T20:27:20.054Z,31.23
2023-02-11T20:29:49.860Z,31.60
2023-02-11T20:32:22.187Z,32.40
2023-02-11T20:34:51.827Z,30.30
2023-02-11T20:37:21.437Z,30.77
2023-02-11T20:39:51.284Z,30.40
2023-02-11T20:42:20.888Z,31.40
2023-02-11T20:44:50.484Z,32.88
2023-02-11T20:47:23.147Z,30.60
2023-02-11T20:49:52.948Z,31.98
2023-02-11T20:52:22.645Z,32.60
2023-02-11T20:54:52.321Z,31.65
2023-02-11T20:57:22.396Z,32.67
2023-02-11T20:59:52.042Z,32.53
2023-02-11T21:02:24.936Z,31.25
2023-02-11T21:04:54.628Z,29.23
2023-02-11T21:07:24.444Z,30.92
2023-02-11T21:09:54.036Z,32.28
2023-02-11T21:12:24.077Z,31.92
2023-02-11T21:14:54.037Z,32.85
2023-02-11T21:17:26.547Z,31.70
2023-02-11T21:19:56.220Z,35.20
2023-02-11T21:22:25.857Z,31.85
2023-02-11T21:24:55.493Z,32.95
2023-02-11T21:27:31.067Z,32.72
2023-02-11T21:30:02.326Z,33.67
2023-02-11T21:32:34.507Z,33.58
2023-02-11T21:35:04.172Z,35.50
2023-02-11T21:37:33.942Z,32.53
2023-02-11T21:40:03.522Z,32.35
2023-02-11T21:42:33.180Z,32.20
2023-02-11T21:45:02.787Z,32.33
2023-02-11T21:47:35.007Z,32.53
2023-02-11T21:50:04.594Z,32.92
2023-02-11T21:52:34.195Z,34.10
2023-02-11T21:55:03.768Z,33.05
2023-02-11T21:57:33.778Z,33.97
2023-02-11T22:00:03.390Z,32.53
2023-02-11T22:02:37.884Z,33.80
2023-02-11T22:05:08.139Z,35.33
2023-02-11T22:07:38.593Z,35.40
2023-02-11T22:10:09.203Z,35.92
2023-02-11T22:12:38.787Z,37.65
2023-02-11T22:15:09.604Z,36.70
2023-02-11T22:17:41.833Z,36.00
2023-02-11T22:20:12.848Z,34.78
2023-02-11T22:22:42.472Z,33.78
2023-02-11T22:25:12.083Z,33.45
2023-02-11T22:27:41.663Z,31.63
2023-02-11T22:30:12.650Z,31.98
2023-02-11T22:32:45.059Z,32.95
2023-02-11T22:35:15.033Z,32.42
2023-02-11T22:37:45.018Z,33.55
2023-02-11T22:40:16.555Z,33.65
2023-02-11T22:42:46.208Z,32.42
2023-02-11T22:45:15.869Z,32.80
2023-02-11T22:47:48.059Z,33.30
2023-02-11T22:50:18.079Z,33.08
2023-02-11T22:52:47.665Z,31.70
2023-02-11T22:55:17.327Z,32.33
2023-02-11T22:57:46.943Z,32.92
2023-02-11T23:00:18.122Z,33.47
2023-02-11T23:02:50.726Z,31.70
2023-02-11T23:05:20.480Z,32.38
2023-02-11T23:07:50.096Z,32.38
2023-02-11T23:10:20.061Z,32.45
2023-02-11T23:12:49.660Z,31.52
2023-02-11T23:15:19.492Z,32.22
2023-02-11T23:17:51.661Z,31.98
2023-02-11T23:20:21.573Z,32.17
2023-02-11T23:22:51.253Z,32.40
2023-02-11T23:25:20.962Z,31.67
2023-02-11T23:27:50.658Z,32.00
2023-02-11T23:30:21.908Z,31.48
2023-02-11T23:32:54.619Z,32.70
2023-02-11T23:35:24.909Z,31.63
2023-02-11T23:37:55.142Z,32.13
2023-02-11T23:40:25.064Z,31.42
2023-02-11T23:42:54.745Z,32.00
2023-02-11T23:45:24.348Z,31.00
2023-02-11T23:47:56.533Z,30.90
2023-02-11T23:50:26.129Z,29.65
2023-02-11T23:52:55.726Z,33.97
2023-02-11T23:55:25.356Z,30.08
2023-02-11T23:57:54.966Z,34.55
